sensor_id;sensor_type;location;lat;lon;timestamp;P1;durP1;ratioP1;P2;durP2;ratioP2
57309;SDS011;43153;50.984;18.204;2023-01-15T00:01:37;7.90;;;2.10;;
57309;SDS011;43153;50.984;18.204;2023-01-15T00:04:04;7.80;;;2.00;;
57309;SDS011;43153;50.984;18.204;2023-01-15T00:06:34;7.60;;;1.90;;
57309;SDS011;43153;50.984;18.204;2023-01-15T00:09:02;8.80;;;2.60;;
57309;SDS011;43153;50.984;18.204;2023-01-15T00:11:31;8.70;;;2.20;;
57309;SDS011;43153;50.984;18.204;2023-01-15T00:13:58;8.30;;;2.20;;
57309;SDS011;43153;50.984;18.204;2023-01-15T00:16:24;6.60;;;1.60;;
57309;SDS011;43153;50.984;18.204;2023-01-15T00:18:53;7.60;;;2.10;;
57309;SDS011;43153;50.984;18.204;2023-01-15T00:21:25;6.40;;;1.60;;
57309;SDS011;43153;50.984;18.204;2023-01-15T00:23:53;6.80;;;2.00;;
57309;SDS011;43153;50.984;18.204;2023-01-15T00:26:40;7.70;;;1.90;;
57309;SDS011;43153;50.984;18.204;2023-01-15T00:29:25;9.20;;;2.20;;
57309;SDS011;43153;50.984;18.204;2023-01-15T00:31:58;8.30;;;2.30;;
57309;SDS011;43153;50.984;18.204;2023-01-15T00:34:31;11.10;;;3.10;;
57309;SDS011;43153;50.984;18.204;2023-01-15T00:36:59;9.10;;;2.60;;
57309;SDS011;43153;50.984;18.204;2023-01-15T00:39:25;7.70;;;2.10;;
57309;SDS011;43153;50.984;18.204;2023-01-15T00:41:52;11.60;;;2.10;;
57309;SDS011;43153;50.984;18.204;2023-01-15T00:44:18;7.00;;;2.10;;
57309;SDS011;43153;50.984;18.204;2023-01-15T00:46:47;7.70;;;2.50;;
57309;SDS011;43153;50.984;18.204;2023-01-15T00:49:13;11.70;;;2.20;;
57309;SDS011;43153;50.984;18.204;2023-01-15T00:51:40;7.10;;;2.70;;
57309;SDS011;43153;50.984;18.204;2023-01-15T00:54:06;6.70;;;1.70;;
57309;SDS011;43153;50.984;18.204;2023-01-15T00:56:34;6.70;;;2.10;;
57309;SDS011;43153;50.984;18.204;2023-01-15T00:59:02;7.80;;;2.90;;
57309;SDS011;43153;50.984;18.204;2023-01-15T01:01:29;8.40;;;2.50;;
57309;SDS011;43153;50.984;18.204;2023-01-15T01:03:56;8.00;;;2.50;;
57309;SDS011;43153;50.984;18.204;2023-01-15T01:06:24;8.20;;;2.70;;
57309;SDS011;43153;50.984;18.204;2023-01-15T01:08:51;10.10;;;2.50;;
57309;SDS011;43153;50.984;18.204;2023-01-15T01:11:24;5.60;;;2.20;;
57309;SDS011;43153;50.984;18.204;2023-01-15T01:13:52;7.70;;;2.10;;
57309;SDS011;43153;50.984;18.204;2023-01-15T01:21:36;7.40;;;2.10;;
57309;SDS011;43153;50.984;18.204;2023-01-15T01:24:02;5.90;;;2.40;;
57309;SDS011;43153;50.984;18.204;2023-01-15T01:26:29;7.30;;;2.50;;
57309;SDS011;43153;50.984;18.204;2023-01-15T01:28:56;8.90;;;2.50;;
57309;SDS011;43153;50.984;18.204;2023-01-15T01:31:22;7.30;;;2.50;;
57309;SDS011;43153;50.984;18.204;2023-01-15T01:33:50;8.30;;;2.50;;
57309;SDS011;43153;50.984;18.204;2023-01-15T01:36:16;9.10;;;2.10;;
57309;SDS011;43153;50.984;18.204;2023-01-15T01:38:47;7.20;;;2.80;;
57309;SDS011;43153;50.984;18.204;2023-01-15T01:41:18;8.80;;;2.30;;
57309;SDS011;43153;50.984;18.204;2023-01-15T01:43:59;6.90;;;1.80;;
57309;SDS011;43153;50.984;18.204;2023-01-15T01:46:31;8.30;;;2.30;;
57309;SDS011;43153;50.984;18.204;2023-01-15T01:48:59;10.90;;;2.40;;
57309;SDS011;43153;50.984;18.204;2023-01-15T01:51:38;6.80;;;2.40;;
57309;SDS011;43153;50.984;18.204;2023-01-15T01:54:06;5.70;;;2.30;;
57309;SDS011;43153;50.984;18.204;2023-01-15T01:56:34;7.30;;;2.20;;
57309;SDS011;43153;50.984;18.204;2023-01-15T01:59:01;8.70;;;3.00;;
57309;SDS011;43153;50.984;18.204;2023-01-15T02:01:28;7.90;;;2.80;;
57309;SDS011;43153;50.984;18.204;2023-01-15T02:03:54;7.70;;;2.30;;
57309;SDS011;43153;50.984;18.204;2023-01-15T02:06:21;7.80;;;2.50;;
57309;SDS011;43153;50.984;18.204;2023-01-15T02:08:51;8.50;;;2.20;;
57309;SDS011;43153;50.984;18.204;2023-01-15T02:11:18;7.00;;;2.60;;
57309;SDS011;43153;50.984;18.204;2023-01-15T02:14:00;9.10;;;3.50;;
57309;SDS011;43153;50.984;18.204;2023-01-15T02:16:50;9.60;;;2.80;;
57309;SDS011;43153;50.984;18.204;2023-01-15T02:22:03;8.10;;;2.60;;
57309;SDS011;43153;50.984;18.204;2023-01-15T02:27:46;7.10;;;2.60;;
57309;SDS011;43153;50.984;18.204;2023-01-15T02:30:17;7.50;;;3.00;;
57309;SDS011;43153;50.984;18.204;2023-01-15T02:33:29;9.20;;;3.10;;
57309;SDS011;43153;50.984;18.204;2023-01-15T02:35:56;7.80;;;3.10;;
57309;SDS011;43153;50.984;18.204;2023-01-15T02:38:33;6.80;;;2.70;;
57309;SDS011;43153;50.984;18.204;2023-01-15T02:41:02;9.40;;;2.80;;
57309;SDS011;43153;50.984;18.204;2023-01-15T02:43:31;9.70;;;3.90;;
57309;SDS011;43153;50.984;18.204;2023-01-15T02:45:59;8.60;;;2.90;;
57309;SDS011;43153;50.984;18.204;2023-01-15T02:48:27;8.40;;;2.90;;
57309;SDS011;43153;50.984;18.204;2023-01-15T02:50:56;8.20;;;2.90;;
57309;SDS011;43153;50.984;18.204;2023-01-15T02:53:27;9.60;;;3.80;;
57309;SDS011;43153;50.984;18.204;2023-01-15T02:55:56;9.40;;;3.40;;
57309;SDS011;43153;50.984;18.204;2023-01-15T02:58:27;9.40;;;2.80;;
57309;SDS011;43153;50.984;18.204;2023-01-15T03:00:57;7.80;;;3.50;;
57309;SDS011;43153;50.984;18.204;2023-01-15T03:10:58;8.40;;;3.10;;
57309;SDS011;43153;50.984;18.204;2023-01-15T03:16:20;8.00;;;3.20;;
57309;SDS011;43153;50.984;18.204;2023-01-15T03:24:42;9.20;;;3.40;;
57309;SDS011;43153;50.984;18.204;2023-01-15T03:27:12;12.10;;;4.00;;
57309;SDS011;43153;50.984;18.204;2023-01-15T03:29:41;6.80;;;2.50;;
57309;SDS011;43153;50.984;18.204;2023-01-15T03:32:13;9.80;;;3.60;;
57309;SDS011;43153;50.984;18.204;2023-01-15T03:34:44;6.30;;;2.40;;
57309;SDS011;43153;50.984;18.204;2023-01-15T03:37:11;6.50;;;2.20;;
57309;SDS011;43153;50.984;18.204;2023-01-15T03:39:38;6.70;;;2.10;;
57309;SDS011;43153;50.984;18.204;2023-01-15T03:50:09;8.50;;;2.40;;
57309;SDS011;43153;50.984;18.204;2023-01-15T04:00:56;7.10;;;2.60;;
57309;SDS011;43153;50.984;18.204;2023-01-15T04:03:24;6.20;;;2.00;;
57309;SDS011;43153;50.984;18.204;2023-01-15T04:05:53;7.00;;;2.40;;
57309;SDS011;43153;50.984;18.204;2023-01-15T04:08:21;5.70;;;2.30;;
57309;SDS011;43153;50.984;18.204;2023-01-15T04:10:52;5.90;;;1.80;;
57309;SDS011;43153;50.984;18.204;2023-01-15T04:13:19;5.60;;;2.20;;
57309;SDS011;43153;50.984;18.204;2023-01-15T04:15:45;7.80;;;2.20;;
57309;SDS011;43153;50.984;18.204;2023-01-15T04:18:12;5.60;;;1.90;;
57309;SDS011;43153;50.984;18.204;2023-01-15T04:20:38;6.40;;;2.10;;
57309;SDS011;43153;50.984;18.204;2023-01-15T04:23:04;5.70;;;2.20;;
57309;SDS011;43153;50.984;18.204;2023-01-15T04:25:33;7.30;;;2.20;;
57309;SDS011;43153;50.984;18.204;2023-01-15T04:28:01;6.40;;;2.00;;
57309;SDS011;43153;50.984;18.204;2023-01-15T04:30:29;5.60;;;2.10;;
57309;SDS011;43153;50.984;18.204;2023-01-15T04:32:56;5.10;;;1.80;;
57309;SDS011;43153;50.984;18.204;2023-01-15T04:35:22;7.30;;;1.80;;
57309;SDS011;43153;50.984;18.204;2023-01-15T04:37:53;7.80;;;2.10;;
57309;SDS011;43153;50.984;18.204;2023-01-15T04:40:23;5.00;;;1.80;;
57309;SDS011;43153;50.984;18.204;2023-01-15T04:43:11;7.50;;;1.90;;
57309;SDS011;43153;50.984;18.204;2023-01-15T04:45:57;5.20;;;1.70;;
57309;SDS011;43153;50.984;18.204;2023-01-15T04:48:23;5.60;;;2.00;;
57309;SDS011;43153;50.984;18.204;2023-01-15T04:50:51;6.10;;;1.70;;
57309;SDS011;43153;50.984;18.204;2023-01-15T04:53:18;8.30;;;2.50;;
57309;SDS011;43153;50.984;18.204;2023-01-15T04:55:44;7.40;;;2.40;;
57309;SDS011;43153;50.984;18.204;2023-01-15T04:58:10;5.50;;;1.60;;
57309;SDS011;43153;50.984;18.204;2023-01-15T05:00:37;6.40;;;2.10;;
57309;SDS011;43153;50.984;18.204;2023-01-15T05:03:06;9.40;;;1.90;;
57309;SDS011;43153;50.984;18.204;2023-01-15T05:05:32;6.70;;;2.40;;
57309;SDS011;43153;50.984;18.204;2023-01-15T05:07:59;7.00;;;1.70;;
57309;SDS011;43153;50.984;18.204;2023-01-15T05:10:25;5.80;;;1.90;;
57309;SDS011;43153;50.984;18.204;2023-01-15T05:12:52;6.00;;;1.80;;
57309;SDS011;43153;50.984;18.204;2023-01-15T05:15:24;4.60;;;1.80;;
57309;SDS011;43153;50.984;18.204;2023-01-15T05:17:50;10.40;;;2.00;;
57309;SDS011;43153;50.984;18.204;2023-01-15T05:20:20;6.70;;;1.80;;
57309;SDS011;43153;50.984;18.204;2023-01-15T05:22:46;5.80;;;1.60;;
57309;SDS011;43153;50.984;18.204;2023-01-15T05:25:12;5.60;;;1.60;;
57309;SDS011;43153;50.984;18.204;2023-01-15T05:27:39;4.90;;;1.50;;
57309;SDS011;43153;50.984;18.204;2023-01-15T05:30:07;7.60;;;1.90;;
57309;SDS011;43153;50.984;18.204;2023-01-15T05:32:34;5.50;;;2.10;;
57309;SDS011;43153;50.984;18.204;2023-01-15T05:35:03;6.30;;;1.60;;
57309;SDS011;43153;50.984;18.204;2023-01-15T05:37:30;5.70;;;1.90;;
57309;SDS011;43153;50.984;18.204;2023-01-15T05:39:57;7.90;;;2.10;;
57309;SDS011;43153;50.984;18.204;2023-01-15T05:42:23;4.30;;;1.60;;
57309;SDS011;43153;50.984;18.204;2023-01-15T05:44:51;6.30;;;1.90;;
57309;SDS011;43153;50.984;18.204;2023-01-15T05:47:17;7.20;;;2.20;;
57309;SDS011;43153;50.984;18.204;2023-01-15T05:49:43;5.30;;;1.80;;
57309;SDS011;43153;50.984;18.204;2023-01-15T05:52:12;5.20;;;1.80;;
57309;SDS011;43153;50.984;18.204;2023-01-15T05:54:39;10.20;;;2.80;;
57309;SDS011;43153;50.984;18.204;2023-01-15T05:57:08;5.80;;;1.90;;
57309;SDS011;43153;50.984;18.204;2023-01-15T05:59:37;8.40;;;2.00;;
57309;SDS011;43153;50.984;18.204;2023-01-15T06:02:03;8.30;;;2.30;;
57309;SDS011;43153;50.984;18.204;2023-01-15T06:04:30;6.60;;;2.30;;
57309;SDS011;43153;50.984;18.204;2023-01-15T06:06:56;6.60;;;2.10;;
57309;SDS011;43153;50.984;18.204;2023-01-15T06:09:23;5.30;;;2.10;;
57309;SDS011;43153;50.984;18.204;2023-01-15T06:11:52;6.30;;;2.10;;
57309;SDS011;43153;50.984;18.204;2023-01-15T06:14:19;7.80;;;2.40;;
57309;SDS011;43153;50.984;18.204;2023-01-15T06:16:46;6.90;;;2.40;;
57309;SDS011;43153;50.984;18.204;2023-01-15T06:19:22;7.10;;;2.30;;
57309;SDS011;43153;50.984;18.204;2023-01-15T06:21:49;6.00;;;2.20;;
57309;SDS011;43153;50.984;18.204;2023-01-15T06:24:15;7.20;;;2.50;;
57309;SDS011;43153;50.984;18.204;2023-01-15T06:26:42;7.30;;;2.50;;
57309;SDS011;43153;50.984;18.204;2023-01-15T06:29:08;9.10;;;2.50;;
57309;SDS011;43153;50.984;18.204;2023-01-15T06:31:35;7.40;;;2.70;;
57309;SDS011;43153;50.984;18.204;2023-01-15T06:34:01;7.20;;;2.40;;
57309;SDS011;43153;50.984;18.204;2023-01-15T06:36:28;7.70;;;3.00;;
57309;SDS011;43153;50.984;18.204;2023-01-15T06:38:55;8.30;;;2.60;;
57309;SDS011;43153;50.984;18.204;2023-01-15T06:41:22;7.60;;;2.50;;
57309;SDS011;43153;50.984;18.204;2023-01-15T06:44:14;6.90;;;2.70;;
57309;SDS011;43153;50.984;18.204;2023-01-15T06:47:04;8.20;;;2.60;;
57309;SDS011;43153;50.984;18.204;2023-01-15T06:49:57;9.40;;;2.70;;
57309;SDS011;43153;50.984;18.204;2023-01-15T06:52:23;7.50;;;2.40;;
57309;SDS011;43153;50.984;18.204;2023-01-15T06:54:52;7.10;;;2.30;;
57309;SDS011;43153;50.984;18.204;2023-01-15T06:57:18;7.50;;;2.60;;
57309;SDS011;43153;50.984;18.204;2023-01-15T06:59:44;6.00;;;2.50;;
57309;SDS011;43153;50.984;18.204;2023-01-15T07:02:11;9.20;;;2.70;;
57309;SDS011;43153;50.984;18.204;2023-01-15T07:04:37;7.80;;;2.50;;
57309;SDS011;43153;50.984;18.204;2023-01-15T07:07:03;9.30;;;2.80;;
57309;SDS011;43153;50.984;18.204;2023-01-15T07:09:30;8.70;;;2.70;;
57309;SDS011;43153;50.984;18.204;2023-01-15T07:11:59;9.50;;;3.00;;
57309;SDS011;43153;50.984;18.204;2023-01-15T07:14:27;8.10;;;2.70;;
57309;SDS011;43153;50.984;18.204;2023-01-15T07:16:55;6.60;;;2.80;;
57309;SDS011;43153;50.984;18.204;2023-01-15T07:19:22;7.70;;;2.50;;
57309;SDS011;43153;50.984;18.204;2023-01-15T07:22:00;9.70;;;3.40;;
57309;SDS011;43153;50.984;18.204;2023-01-15T07:24:27;11.30;;;4.20;;
57309;SDS011;43153;50.984;18.204;2023-01-15T07:26:53;10.40;;;3.40;;
57309;SDS011;43153;50.984;18.204;2023-01-15T07:29:25;10.80;;;3.80;;
57309;SDS011;43153;50.984;18.204;2023-01-15T07:31:51;11.10;;;4.00;;
57309;SDS011;43153;50.984;18.204;2023-01-15T07:34:17;10.10;;;4.20;;
57309;SDS011;43153;50.984;18.204;2023-01-15T07:36:44;12.80;;;4.10;;
57309;SDS011;43153;50.984;18.204;2023-01-15T07:39:10;11.30;;;3.90;;
57309;SDS011;43153;50.984;18.204;2023-01-15T07:41:37;11.60;;;4.00;;
57309;SDS011;43153;50.984;18.204;2023-01-15T07:44:23;10.90;;;5.60;;
57309;SDS011;43153;50.984;18.204;2023-01-15T07:47:15;16.60;;;6.30;;
57309;SDS011;43153;50.984;18.204;2023-01-15T07:50:03;15.30;;;6.70;;
57309;SDS011;43153;50.984;18.204;2023-01-15T07:52:30;16.90;;;7.00;;
57309;SDS011;43153;50.984;18.204;2023-01-15T07:55:01;14.70;;;6.50;;
57309;SDS011;43153;50.984;18.204;2023-01-15T07:57:28;19.90;;;8.20;;
57309;SDS011;43153;50.984;18.204;2023-01-15T07:59:54;19.30;;;8.20;;
57309;SDS011;43153;50.984;18.204;2023-01-15T08:02:20;15.70;;;7.80;;
57309;SDS011;43153;50.984;18.204;2023-01-15T08:04:46;15.80;;;8.30;;
57309;SDS011;43153;50.984;18.204;2023-01-15T08:07:13;16.40;;;7.20;;
57309;SDS011;43153;50.984;18.204;2023-01-15T08:09:40;14.70;;;6.10;;
57309;SDS011;43153;50.984;18.204;2023-01-15T08:12:08;13.50;;;6.40;;
57309;SDS011;43153;50.984;18.204;2023-01-15T08:14:55;18.40;;;9.20;;
57309;SDS011;43153;50.984;18.204;2023-01-15T08:17:46;18.30;;;9.00;;
57309;SDS011;43153;50.984;18.204;2023-01-15T08:20:19;16.50;;;8.40;;
57309;SDS011;43153;50.984;18.204;2023-01-15T08:22:49;16.50;;;8.10;;
57309;SDS011;43153;50.984;18.204;2023-01-15T08:25:17;11.60;;;6.10;;
57309;SDS011;43153;50.984;18.204;2023-01-15T08:27:45;14.00;;;6.50;;
57309;SDS011;43153;50.984;18.204;2023-01-15T08:30:13;17.80;;;6.40;;
57309;SDS011;43153;50.984;18.204;2023-01-15T08:32:44;12.90;;;6.30;;
57309;SDS011;43153;50.984;18.204;2023-01-15T08:35:10;13.80;;;4.60;;
57309;SDS011;43153;50.984;18.204;2023-01-15T08:37:37;15.50;;;7.50;;
57309;SDS011;43153;50.984;18.204;2023-01-15T08:40:04;16.40;;;6.90;;
57309;SDS011;43153;50.984;18.204;2023-01-15T08:42:32;14.60;;;6.80;;
57309;SDS011;43153;50.984;18.204;2023-01-15T08:44:59;19.00;;;9.20;;
57309;SDS011;43153;50.984;18.204;2023-01-15T08:47:25;19.50;;;9.50;;
57309;SDS011;43153;50.984;18.204;2023-01-15T08:49:54;11.30;;;5.60;;
57309;SDS011;43153;50.984;18.204;2023-01-15T08:52:21;15.70;;;5.40;;
57309;SDS011;43153;50.984;18.204;2023-01-15T08:54:47;14.80;;;6.70;;
57309;SDS011;43153;50.984;18.204;2023-01-15T08:57:14;13.70;;;5.00;;
57309;SDS011;43153;50.984;18.204;2023-01-15T08:59:43;10.00;;;4.20;;
57309;SDS011;43153;50.984;18.204;2023-01-15T09:02:11;10.10;;;4.40;;
57309;SDS011;43153;50.984;18.204;2023-01-15T09:04:42;12.70;;;5.60;;
57309;SDS011;43153;50.984;18.204;2023-01-15T09:07:10;15.30;;;5.50;;
57309;SDS011;43153;50.984;18.204;2023-01-15T09:09:40;11.40;;;4.60;;
57309;SDS011;43153;50.984;18.204;2023-01-15T09:12:07;10.70;;;4.50;;
57309;SDS011;43153;50.984;18.204;2023-01-15T09:14:33;19.70;;;7.70;;
57309;SDS011;43153;50.984;18.204;2023-01-15T09:17:01;12.30;;;4.50;;
57309;SDS011;43153;50.984;18.204;2023-01-15T09:19:28;12.60;;;5.60;;
57309;SDS011;43153;50.984;18.204;2023-01-15T09:21:55;12.50;;;5.00;;
57309;SDS011;43153;50.984;18.204;2023-01-15T09:24:21;11.60;;;4.60;;
57309;SDS011;43153;50.984;18.204;2023-01-15T09:26:50;10.60;;;4.00;;
57309;SDS011;43153;50.984;18.204;2023-01-15T09:29:18;10.50;;;4.20;;
57309;SDS011;43153;50.984;18.204;2023-01-15T09:31:45;11.00;;;3.90;;
57309;SDS011;43153;50.984;18.204;2023-01-15T09:34:12;12.70;;;5.00;;
57309;SDS011;43153;50.984;18.204;2023-01-15T09:36:39;13.40;;;4.10;;
57309;SDS011;43153;50.984;18.204;2023-01-15T09:39:05;12.50;;;3.60;;
57309;SDS011;43153;50.984;18.204;2023-01-15T09:47:17;9.30;;;3.50;;
57309;SDS011;43153;50.984;18.204;2023-01-15T09:55:17;8.60;;;3.20;;
57309;SDS011;43153;50.984;18.204;2023-01-15T09:57:54;8.60;;;2.90;;
57309;SDS011;43153;50.984;18.204;2023-01-15T10:03:15;7.90;;;2.70;;
57309;SDS011;43153;50.984;18.204;2023-01-15T10:05:57;9.70;;;3.20;;
57309;SDS011;43153;50.984;18.204;2023-01-15T10:08:44;11.00;;;3.00;;
57309;SDS011;43153;50.984;18.204;2023-01-15T10:16:11;9.40;;;2.40;;
57309;SDS011;43153;50.984;18.204;2023-01-15T10:18:40;6.70;;;2.20;;
57309;SDS011;43153;50.984;18.204;2023-01-15T10:21:10;10.50;;;2.90;;
57309;SDS011;43153;50.984;18.204;2023-01-15T10:26:55;10.20;;;3.10;;
57309;SDS011;43153;50.984;18.204;2023-01-15T10:46:16;7.50;;;2.60;;
57309;SDS011;43153;50.984;18.204;2023-01-15T10:48:45;7.60;;;2.80;;
57309;SDS011;43153;50.984;18.204;2023-01-15T10:51:17;8.90;;;2.60;;
57309;SDS011;43153;50.984;18.204;2023-01-15T10:53:48;10.50;;;3.60;;
57309;SDS011;43153;50.984;18.204;2023-01-15T10:56:21;6.00;;;1.90;;
57309;SDS011;43153;50.984;18.204;2023-01-15T10:59:00;8.10;;;2.30;;
57309;SDS011;43153;50.984;18.204;2023-01-15T11:01:39;8.40;;;2.50;;
57309;SDS011;43153;50.984;18.204;2023-01-15T11:04:10;7.50;;;2.40;;
57309;SDS011;43153;50.984;18.204;2023-01-15T11:06:38;9.20;;;2.40;;
57309;SDS011;43153;50.984;18.204;2023-01-15T11:09:04;7.70;;;3.00;;
57309;SDS011;43153;50.984;18.204;2023-01-15T11:11:45;7.40;;;2.30;;
57309;SDS011;43153;50.984;18.204;2023-01-15T11:14:40;8.80;;;3.00;;
57309;SDS011;43153;50.984;18.204;2023-01-15T11:17:45;6.60;;;1.90;;
57309;SDS011;43153;50.984;18.204;2023-01-15T11:20:32;6.80;;;2.30;;
57309;SDS011;43153;50.984;18.204;2023-01-15T11:23:11;7.80;;;1.80;;
57309;SDS011;43153;50.984;18.204;2023-01-15T11:25:39;7.10;;;2.20;;
57309;SDS011;43153;50.984;18.204;2023-01-15T11:28:36;9.80;;;1.90;;
57309;SDS011;43153;50.984;18.204;2023-01-15T11:31:11;6.50;;;2.10;;
57309;SDS011;43153;50.984;18.204;2023-01-15T11:33:57;6.20;;;1.60;;
57309;SDS011;43153;50.984;18.204;2023-01-15T11:36:28;6.80;;;2.10;;
57309;SDS011;43153;50.984;18.204;2023-01-15T11:38:55;6.80;;;2.10;;
57309;SDS011;43153;50.984;18.204;2023-01-15T11:44:11;8.00;;;2.50;;
57309;SDS011;43153;50.984;18.204;2023-01-15T11:46:56;7.40;;;2.20;;
57309;SDS011;43153;50.984;18.204;2023-01-15T11:49:53;7.80;;;2.40;;
57309;SDS011;43153;50.984;18.204;2023-01-15T11:52:42;7.80;;;2.10;;
57309;SDS011;43153;50.984;18.204;2023-01-15T11:55:14;11.60;;;3.30;;
57309;SDS011;43153;50.984;18.204;2023-01-15T11:57:46;9.30;;;2.60;;
57309;SDS011;43153;50.984;18.204;2023-01-15T12:00:18;6.80;;;2.10;;
57309;SDS011;43153;50.984;18.204;2023-01-15T12:02:46;9.00;;;2.00;;
57309;SDS011;43153;50.984;18.204;2023-01-15T12:07:45;7.40;;;2.40;;
57309;SDS011;43153;50.984;18.204;2023-01-15T12:20:15;9.30;;;2.50;;
57309;SDS011;43153;50.984;18.204;2023-01-15T12:22:52;7.30;;;2.30;;
57309;SDS011;43153;50.984;18.204;2023-01-15T12:28:34;7.40;;;2.30;;
57309;SDS011;43153;50.984;18.204;2023-01-15T12:31:13;8.20;;;2.50;;
57309;SDS011;43153;50.984;18.204;2023-01-15T12:39:00;9.00;;;2.10;;
57309;SDS011;43153;50.984;18.204;2023-01-15T12:41:33;9.10;;;2.90;;
57309;SDS011;43153;50.984;18.204;2023-01-15T12:44:26;7.90;;;2.40;;
57309;SDS011;43153;50.984;18.204;2023-01-15T12:47:26;7.00;;;2.50;;
57309;SDS011;43153;50.984;18.204;2023-01-15T12:53:01;7.70;;;2.60;;
57309;SDS011;43153;50.984;18.204;2023-01-15T12:55:43;7.10;;;1.80;;
57309;SDS011;43153;50.984;18.204;2023-01-15T13:00:51;7.00;;;2.20;;
57309;SDS011;43153;50.984;18.204;2023-01-15T13:06:35;7.90;;;2.30;;
57309;SDS011;43153;50.984;18.204;2023-01-15T13:09:08;9.10;;;2.40;;
57309;SDS011;43153;50.984;18.204;2023-01-15T13:11:38;5.00;;;1.50;;
57309;SDS011;43153;50.984;18.204;2023-01-15T13:14:14;7.30;;;2.10;;
57309;SDS011;43153;50.984;18.204;2023-01-15T13:19:35;5.20;;;1.70;;
57309;SDS011;43153;50.984;18.204;2023-01-15T13:22:08;6.50;;;2.30;;
57309;SDS011;43153;50.984;18.204;2023-01-15T13:24:54;8.10;;;2.20;;
57309;SDS011;43153;50.984;18.204;2023-01-15T13:27:49;6.10;;;1.80;;
57309;SDS011;43153;50.984;18.204;2023-01-15T13:33:17;8.30;;;2.10;;
57309;SDS011;43153;50.984;18.204;2023-01-15T13:35:50;8.40;;;3.00;;
57309;SDS011;43153;50.984;18.204;2023-01-15T13:38:20;9.20;;;2.70;;
57309;SDS011;43153;50.984;18.204;2023-01-15T13:40:50;7.90;;;2.50;;
57309;SDS011;43153;50.984;18.204;2023-01-15T13:43:29;7.30;;;2.80;;
57309;SDS011;43153;50.984;18.204;2023-01-15T13:49:02;9.70;;;2.90;;
57309;SDS011;43153;50.984;18.204;2023-01-15T13:53:54;7.70;;;2.60;;
57309;SDS011;43153;50.984;18.204;2023-01-15T13:56:40;7.20;;;2.20;;
57309;SDS011;43153;50.984;18.204;2023-01-15T14:01:59;8.80;;;3.00;;
57309;SDS011;43153;50.984;18.204;2023-01-15T14:04:32;10.20;;;3.70;;
57309;SDS011;43153;50.984;18.204;2023-01-15T14:07:15;15.50;;;4.50;;
57309;SDS011;43153;50.984;18.204;2023-01-15T14:09:44;28.50;;;8.80;;
57309;SDS011;43153;50.984;18.204;2023-01-15T14:12:29;20.60;;;6.90;;
57309;SDS011;43153;50.984;18.204;2023-01-15T14:20:36;11.60;;;3.70;;
57309;SDS011;43153;50.984;18.204;2023-01-15T14:23:39;10.00;;;2.90;;
57309;SDS011;43153;50.984;18.204;2023-01-15T14:35:00;10.60;;;4.10;;
57309;SDS011;43153;50.984;18.204;2023-01-15T14:37:28;12.30;;;4.20;;
57309;SDS011;43153;50.984;18.204;2023-01-15T14:39:57;15.00;;;5.20;;
57309;SDS011;43153;50.984;18.204;2023-01-15T14:42:26;16.90;;;6.20;;
57309;SDS011;43153;50.984;18.204;2023-01-15T14:47:48;19.00;;;6.10;;
57309;SDS011;43153;50.984;18.204;2023-01-15T14:50:24;22.20;;;6.80;;
57309;SDS011;43153;50.984;18.204;2023-01-15T14:52:55;20.60;;;6.60;;
57309;SDS011;43153;50.984;18.204;2023-01-15T14:55:29;18.60;;;6.00;;
57309;SDS011;43153;50.984;18.204;2023-01-15T14:57:57;19.30;;;6.30;;
57309;SDS011;43153;50.984;18.204;2023-01-15T15:00:29;15.10;;;4.60;;
57309;SDS011;43153;50.984;18.204;2023-01-15T15:02:59;11.20;;;3.10;;
57309;SDS011;43153;50.984;18.204;2023-01-15T15:05:25;10.50;;;3.10;;
57309;SDS011;43153;50.984;18.204;2023-01-15T15:07:56;10.00;;;3.30;;
57309;SDS011;43153;50.984;18.204;2023-01-15T15:10:24;8.30;;;3.20;;
57309;SDS011;43153;50.984;18.204;2023-01-15T15:16:06;11.40;;;3.40;;
57309;SDS011;43153;50.984;18.204;2023-01-15T15:18:53;9.20;;;3.10;;
57309;SDS011;43153;50.984;18.204;2023-01-15T15:21:30;11.40;;;3.50;;
57309;SDS011;43153;50.984;18.204;2023-01-15T15:26:52;10.10;;;3.10;;
57309;SDS011;43153;50.984;18.204;2023-01-15T15:29:22;7.00;;;2.40;;
57309;SDS011;43153;50.984;18.204;2023-01-15T15:31:49;9.70;;;2.70;;
57309;SDS011;43153;50.984;18.204;2023-01-15T15:34:30;10.50;;;3.10;;
57309;SDS011;43153;50.984;18.204;2023-01-15T15:36:59;7.90;;;1.90;;
57309;SDS011;43153;50.984;18.204;2023-01-15T15:42:26;4.90;;;1.10;;
57309;SDS011;43153;50.984;18.204;2023-01-15T15:45:23;5.20;;;1.30;;
57309;SDS011;43153;50.984;18.204;2023-01-15T15:50:55;3.90;;;1.10;;
57309;SDS011;43153;50.984;18.204;2023-01-15T15:53:23;6.20;;;1.50;;
57309;SDS011;43153;50.984;18.204;2023-01-15T15:55:49;5.00;;;1.20;;
57309;SDS011;43153;50.984;18.204;2023-01-15T15:58:23;6.30;;;1.70;;
57309;SDS011;43153;50.984;18.204;2023-01-15T16:00:53;5.60;;;1.70;;
57309;SDS011;43153;50.984;18.204;2023-01-15T16:03:21;6.70;;;2.00;;
57309;SDS011;43153;50.984;18.204;2023-01-15T16:06:02;6.20;;;1.90;;
57309;SDS011;43153;50.984;18.204;2023-01-15T16:08:31;5.10;;;1.40;;
57309;SDS011;43153;50.984;18.204;2023-01-15T16:11:00;5.00;;;1.30;;
57309;SDS011;43153;50.984;18.204;2023-01-15T16:15:58;4.80;;;0.90;;
57309;SDS011;43153;50.984;18.204;2023-01-15T16:18:26;3.90;;;0.70;;
57309;SDS011;43153;50.984;18.204;2023-01-15T16:20:56;3.30;;;0.70;;
57309;SDS011;43153;50.984;18.204;2023-01-15T16:23:24;2.70;;;0.60;;
57309;SDS011;43153;50.984;18.204;2023-01-15T16:31:09;7.40;;;2.10;;
57309;SDS011;43153;50.984;18.204;2023-01-15T16:33:38;9.40;;;3.70;;
57309;SDS011;43153;50.984;18.204;2023-01-15T16:36:06;10.00;;;3.00;;
57309;SDS011;43153;50.984;18.204;2023-01-15T16:38:34;5.30;;;1.90;;
57309;SDS011;43153;50.984;18.204;2023-01-15T16:41:01;11.50;;;3.60;;
57309;SDS011;43153;50.984;18.204;2023-01-15T16:43:28;14.50;;;7.10;;
57309;SDS011;43153;50.984;18.204;2023-01-15T16:48:34;13.50;;;4.90;;
57309;SDS011;43153;50.984;18.204;2023-01-15T16:53:57;9.60;;;2.70;;
57309;SDS011;43153;50.984;18.204;2023-01-15T17:01:35;11.10;;;4.00;;
57309;SDS011;43153;50.984;18.204;2023-01-15T17:04:15;9.30;;;3.50;;
57309;SDS011;43153;50.984;18.204;2023-01-15T17:10:03;11.80;;;5.40;;
57309;SDS011;43153;50.984;18.204;2023-01-15T17:12:32;9.60;;;4.10;;
57309;SDS011;43153;50.984;18.204;2023-01-15T17:17:48;10.70;;;4.50;;
57309;SDS011;43153;50.984;18.204;2023-01-15T17:20:18;11.70;;;4.10;;
57309;SDS011;43153;50.984;18.204;2023-01-15T17:22:47;11.10;;;4.10;;
57309;SDS011;43153;50.984;18.204;2023-01-15T17:25:20;10.10;;;3.20;;
57309;SDS011;43153;50.984;18.204;2023-01-15T17:27:51;12.40;;;4.70;;
57309;SDS011;43153;50.984;18.204;2023-01-15T17:30:22;15.60;;;7.40;;
57309;SDS011;43153;50.984;18.204;2023-01-15T17:32:57;14.80;;;7.40;;
57309;SDS011;43153;50.984;18.204;2023-01-15T17:35:26;14.20;;;5.30;;
57309;SDS011;43153;50.984;18.204;2023-01-15T17:37:55;15.10;;;6.00;;
57309;SDS011;43153;50.984;18.204;2023-01-15T17:40:23;15.30;;;5.50;;
57309;SDS011;43153;50.984;18.204;2023-01-15T17:42:50;15.70;;;6.00;;
57309;SDS011;43153;50.984;18.204;2023-01-15T17:47:49;6.10;;;2.10;;
57309;SDS011;43153;50.984;18.204;2023-01-15T17:50:16;8.50;;;3.10;;
57309;SDS011;43153;50.984;18.204;2023-01-15T17:52:42;12.90;;;4.60;;
57309;SDS011;43153;50.984;18.204;2023-01-15T17:55:13;12.00;;;4.40;;
57309;SDS011;43153;50.984;18.204;2023-01-15T17:58:00;9.00;;;3.70;;
57309;SDS011;43153;50.984;18.204;2023-01-15T18:00:49;9.70;;;4.00;;